Time;durP1;ratioP1;P1;durP2;ratioP2;P2;SDS_P1;SDS_P2;PMS_P1;PMS_P2;Temp;Humidity;BMP_temperature;BMP_pressure;BME280_temperature;BME280_humidity;BME280_pressure;Samples;Min_cycle;Max_cycle;Signal;HPM_P1;HPM_P2
2022/09/07 00:01:07;;;;;;;6.70;3.83;;;18.00;99.90;;;;;;5034836;28;20477;-64
2022/09/07 00:03:33;;;;;;;5.40;3.63;;;18.00;99.90;;;;;;5051223;28;20045;-64
2022/09/07 00:06:05;;;;;;;6.78;3.92;;;17.90;99.90;;;;;;5050654;28;20053;-63
2022/09/07 00:08:31;;;;;;;5.43;3.58;;;17.90;99.90;;;;;;5051174;28;20105;-65
2022/09/07 00:11:03;;;;;;;6.55;3.75;;;17.90;1.00;;;;;;5034489;28;20044;-64
2022/09/07 00:13:32;;;;;;;6.05;3.92;;;17.90;99.90;;;;;;5052531;28;20519;-65
2022/09/07 00:16:13;;;;;;;6.78;3.85;;;17.90;99.90;;;;;;5051348;28;20400;-65
2022/09/07 00:18:39;;;;;;;;;;;17.90;99.90;;;;;;5051798;28;20582;-64
2022/09/07 00:21:07;;;;;;;4.63;3.47;;;17.90;99.90;;;;;;5051057;28;19917;-64
2022/09/07 00:23:35;;;;;;;5.82;3.72;;;17.80;99.90;;;;;;5052992;28;20080;-64
2022/09/07 00:26:07;;;;;;;8.13;3.72;;;17.80;99.90;;;;;;5054774;28;20041;-64
2022/09/07 00:28:34;;;;;;;5.63;4.05;;;17.70;99.90;;;;;;5055118;28;20049;-65
2022/09/07 00:30:59;;;;;;;6.00;4.15;;;17.70;1.00;;;;;;5054835;28;20044;-65
2022/09/07 00:33:25;;;;;;;7.32;3.55;;;17.70;99.90;;;;;;5054575;28;20060;-64
2022/09/07 00:35:51;;;;;;;7.55;3.60;;;17.70;1.00;;;;;;5037841;28;20576;-65
2022/09/07 00:38:18;;;;;;;5.70;3.92;;;17.70;1.00;;;;;;5038147;28;20048;-64
2022/09/07 00:40:44;;;;;;;4.13;3.25;;;17.70;99.90;;;;;;5038028;28;20127;-64
2022/09/07 00:43:35;;;;;;;5.25;3.70;;;17.60;99.90;;;;;;5038069;28;20079;-64
2022/09/07 00:46:02;;;;;;;4.65;3.30;;;17.60;99.90;;;;;;5037482;28;20631;-64
2022/09/07 00:48:51;;;;;;;5.65;3.67;;;17.70;99.90;;;;;;5037976;28;20053;-64
2022/09/07 00:51:48;;;;;;;6.82;4.22;;;17.60;42.30;;;;;;5009593;28;20053;-65
2022/09/07 00:54:22;;;;;;;4.75;3.55;;;17.60;99.90;;;;;;5037035;28;20389;-64
2022/09/07 00:56:49;;;;;;;6.38;3.80;;;17.60;1.00;;;;;;5055758;28;20045;-65
2022/09/07 00:59:25;;;;;;;3.75;3.30;;;17.70;99.90;;;;;;5037782;28;20052;-65
2022/09/07 01:04:52;;;;;;;5.40;3.20;;;17.60;99.90;;;;;;5075823;22;20057;-72
2022/09/07 01:07:18;;;;;;;5.88;4.35;;;17.60;99.90;;;;;;5029446;28;20085;-72
2022/09/07 01:09:46;;;;;;;5.65;3.67;;;17.60;99.90;;;;;;5033641;28;20096;-73
2022/09/07 01:12:12;;;;;;;6.47;3.53;;;17.60;99.90;;;;;;5018178;28;20048;-73
2022/09/07 01:14:47;;;;;;;6.20;4.00;;;17.50;7.90;;;;;;5034320;28;20393;-72
2022/09/07 01:17:35;;;;;;;8.00;4.68;;;17.50;99.90;;;;;;5034373;28;20546;-72
2022/09/07 01:20:07;;;;;;;6.18;4.20;;;17.50;99.90;;;;;;5024605;28;20136;-73
2022/09/07 01:22:48;;;;;;;6.40;4.70;;;17.40;99.90;;;;;;5033981;28;20085;-73
2022/09/07 01:25:41;;;;;;;8.25;4.50;;;17.30;1.00;;;;;;5017441;28;20052;-72
2022/09/07 01:28:20;;;;;;;6.45;4.25;;;17.30;99.90;;;;;;5033810;28;20086;-72
2022/09/07 01:31:10;;;;;;;4.80;4.05;;;17.30;99.90;;;;;;5034103;28;20075;-73
2022/09/07 01:33:47;;;;;;;6.72;4.40;;;17.30;62.10;;;;;;5033433;28;20129;-73
2022/09/07 01:36:19;;;;;;;7.22;4.75;;;17.30;99.90;;;;;;4997108;28;20050;-73
2022/09/07 01:38:54;;;;;;;7.05;4.85;;;17.30;99.90;;;;;;5013924;28;20053;-73
2022/09/07 01:41:31;;;;;;;6.35;4.82;;;17.20;99.90;;;;;;5013858;28;20049;-72
2022/09/07 01:44:18;;;;;;;7.22;4.97;;;17.10;99.90;;;;;;5014156;28;20052;-72
2022/09/07 01:47:12;;;;;;;8.40;5.38;;;17.10;1.00;;;;;;5013804;28;20524;-72
2022/09/07 01:49:47;;;;;;;8.85;5.22;;;17.10;1.00;;;;;;5030352;28;20575;-72
2022/09/07 01:52:41;;;;;;;7.32;5.10;;;17.00;1.00;;;;;;5013626;28;20038;-73
2022/09/07 01:55:23;;;;;;;7.20;5.22;;;17.00;1.00;;;;;;5006192;28;20049;-72
2022/09/07 01:57:56;;;;;;;5.97;4.63;;;17.00;1.00;;;;;;5013612;28;20049;-72
2022/09/07 02:00:23;;;;;;;6.88;5.18;;;16.90;1.00;;;;;;5013774;28;20454;-72
2022/09/07 02:03:14;;;;;;;8.68;5.93;;;17.00;40.10;;;;;;4997492;28;20037;-72
2022/09/07 02:05:49;;;;;;;7.68;4.80;;;16.90;39.00;;;;;;5036893;28;20106;-72
2022/09/07 02:08:27;;;;;;;6.88;5.13;;;16.90;59.50;;;;;;5053284;28;20082;-72
2022/09/07 02:11:11;;;;;;;10.60;5.18;;;16.90;80.80;;;;;;5053239;28;20041;-72
2022/09/07 02:14:09;;;;;;;10.63;5.88;;;16.90;90.00;;;;;;5052968;28;20056;-72
2022/09/07 02:16:43;;;;;;;7.80;4.93;;;16.80;91.20;;;;;;5052422;28;20114;-72
2022/09/07 02:19:15;;;;;;;12.10;5.35;;;16.80;93.10;;;;;;5053134;28;20131;-71
2022/09/07 02:21:47;;;;;;;9.85;5.55;;;16.80;93.10;;;;;;5036458;28;20051;-72
2022/09/07 02:24:26;;;;;;;8.07;5.10;;;16.80;93.00;;;;;;5052755;28;20037;-72
2022/09/07 02:26:54;;;;;;;6.75;5.07;;;16.80;92.90;;;;;;5052641;28;20045;-72
2022/09/07 02:29:20;;;;;;;9.15;5.75;;;16.90;93.60;;;;;;5052584;28;20041;-72
2022/09/07 02:31:47;;;;;;;10.02;5.10;;;16.80;94.40;;;;;;5036267;28;20055;-72
2022/09/07 02:34:12;;;;;;;8.80;4.80;;;16.90;95.80;;;;;;5035493;28;20041;-72
2022/09/07 02:36:45;;;;;;;6.50;4.68;;;16.80;96.00;;;;;;5052574;28;20536;-72
2022/09/07 02:39:11;;;;;;;9.65;4.47;;;16.80;96.40;;;;;;5052661;28;20402;-72
2022/09/07 02:41:39;;;;;;;6.32;4.13;;;16.80;96.60;;;;;;5035811;28;20120;-72
2022/09/07 02:44:18;;;;;;;6.90;3.97;;;16.90;96.40;;;;;;5036012;28;20466;-72
2022/09/07 02:47:13;;;;;;;5.32;4.00;;;16.80;97.00;;;;;;5051933;28;20041;-72
2022/09/07 02:49:53;;;;;;;6.97;4.75;;;16.80;96.50;;;;;;5052589;28;20045;-72
2022/09/07 02:52:49;;;;;;;6.23;4.23;;;16.80;96.90;;;;;;5035625;28;20037;-72
2022/09/07 02:55:34;;;;;;;7.53;4.72;;;16.80;97.30;;;;;;5052084;28;20333;-72
2022/09/07 02:58:05;;;;;;;7.55;4.65;;;16.80;97.80;;;;;;5035442;28;20078;-72
2022/09/07 03:00:38;;;;;;;7.30;5.07;;;16.80;98.30;;;;;;5052374;28;20575;-72
2022/09/07 03:03:13;;;;;;;4.72;3.97;;;16.80;98.40;;;;;;5052268;28;20466;-72
2022/09/07 03:05:51;;;;;;;6.72;4.18;;;16.80;99.20;;;;;;5051584;28;20061;-72
2022/09/07 03:08:20;;;;;;;7.15;5.00;;;16.80;99.90;;;;;;5052164;28;20455;-72
2022/09/07 03:10:47;;;;;;;5.55;4.50;;;16.90;99.80;;;;;;5052145;28;20044;-72
2022/09/07 03:13:24;;;;;;;6.03;4.65;;;16.80;99.30;;;;;;5051871;28;20044;-72
2022/09/07 03:15:50;;;;;;;7.53;4.70;;;16.80;99.00;;;;;;5035270;28;20056;-72
2022/09/07 03:18:15;;;;;;;5.90;4.65;;;16.80;99.90;;;;;;5035478;28;20049;-72
2022/09/07 03:20:41;;;;;;;6.65;4.43;;;16.80;99.90;;;;;;5052005;28;20044;-72
2022/09/07 03:23:08;;;;;;;7.68;4.72;;;16.80;99.90;;;;;;5035329;28;20043;-72
2022/09/07 03:25:33;;;;;;;6.25;4.30;;;16.80;99.90;;;;;;5051561;28;20049;-72
2022/09/07 03:27:59;;;;;;;9.90;5.32;;;16.80;99.90;;;;;;5034971;28;20490;-72
2022/09/07 03:30:25;;;;;;;6.15;4.70;;;16.80;99.70;;;;;;5018559;28;20083;-72
2022/09/07 03:32:51;;;;;;;7.25;5.05;;;16.80;99.80;;;;;;5035293;28;20043;-72
2022/09/07 03:35:17;;;;;;;6.18;4.82;;;16.80;99.90;;;;;;5034520;28;20128;-72
2022/09/07 03:37:43;;;;;;;7.35;5.15;;;16.80;99.90;;;;;;5051520;28;20045;-72
2022/09/07 03:40:10;;;;;;;9.95;5.53;;;16.80;99.90;;;;;;5051396;28;20048;-72
2022/09/07 03:42:36;;;;;;;6.88;5.05;;;16.70;99.90;;;;;;5018549;28;20044;-72
2022/09/07 03:45:03;;;;;;;7.53;5.28;;;16.80;99.90;;;;;;5035113;28;20033;-72
2022/09/07 03:47:29;;;;;;;8.85;5.18;;;16.70;99.90;;;;;;5051380;28;20041;-72
2022/09/07 03:49:55;;;;;;;7.80;5.30;;;16.70;99.60;;;;;;5051658;28;20052;-72
2022/09/07 03:52:20;;;;;;;8.05;5.05;;;16.70;99.90;;;;;;5051346;28;20040;-72
2022/09/07 03:54:46;;;;;;;6.97;5.30;;;16.70;99.90;;;;;;5051350;28;20037;-72
2022/09/07 03:57:12;;;;;;;6.28;4.68;;;16.70;99.90;;;;;;5051574;28;20045;-72
2022/09/07 03:59:38;;;;;;;7.88;5.38;;;16.70;99.90;;;;;;5055770;28;20080;-72
2022/09/07 04:02:04;;;;;;;9.65;4.80;;;16.70;99.90;;;;;;5055447;28;20120;-72
2022/09/07 04:04:30;;;;;;;8.52;5.03;;;16.60;99.90;;;;;;5055034;28;20476;-72
2022/09/07 04:06:55;;;;;;;7.00;5.07;;;16.60;99.90;;;;;;5050887;28;20496;-72
2022/09/07 04:09:21;;;;;;;6.55;5.60;;;16.60;99.90;;;;;;5055362;28;20041;-72
2022/09/07 04:11:47;;;;;;;6.70;5.13;;;16.60;99.90;;;;;;5048470;28;20040;-72
2022/09/07 04:14:13;;;;;;;8.00;5.60;;;16.60;99.90;;;;;;5055490;28;20036;-72
2022/09/07 04:16:39;;;;;;;8.75;6.05;;;16.60;99.90;;;;;;5014209;28;20080;-72
2022/09/07 04:19:05;;;;;;;9.27;5.93;;;16.50;99.90;;;;;;5055287;28;20080;-72
2022/09/07 04:21:32;;;;;;;8.23;6.25;;;16.50;99.90;;;;;;5055324;28;20080;-72
2022/09/07 04:23:58;;;;;;;6.25;5.53;;;16.50;99.90;;;;;;5033320;28;20041;-72
2022/09/07 04:26:32;;;;;;;10.68;6.38;;;16.50;99.90;;;;;;5054848;28;20053;-72
2022/09/07 04:29:02;;;;;;;9.75;6.28;;;16.50;99.90;;;;;;5049567;28;20124;-72
2022/09/07 04:31:29;;;;;;;12.13;6.97;;;16.50;99.90;;;;;;5055109;28;20083;-72
2022/09/07 04:33:55;;;;;;;10.57;6.90;;;16.50;99.90;;;;;;5032062;28;20098;-72
2022/09/07 04:36:23;;;;;;;9.60;6.55;;;16.50;99.90;;;;;;5054781;28;20053;-72
2022/09/07 04:38:58;;;;;;;12.02;6.68;;;16.40;99.90;;;;;;5048148;28;20127;-72
2022/09/07 04:41:25;;;;;;;8.88;6.40;;;16.40;99.90;;;;;;5054678;28;20048;-72
2022/09/07 04:43:53;;;;;;;10.20;6.95;;;16.40;99.90;;;;;;5032081;28;20143;-72
2022/09/07 04:46:22;;;;;;;9.25;6.45;;;16.40;99.90;;;;;;5054523;28;20049;-72
2022/09/07 04:48:56;;;;;;;10.65;7.30;;;16.30;99.90;;;;;;5047977;28;20039;-72
2022/09/07 04:51:23;;;;;;;10.80;7.45;;;16.30;99.90;;;;;;5054614;28;20041;-72
2022/09/07 04:53:51;;;;;;;10.40;6.80;;;16.30;99.90;;;;;;5048050;28;20041;-72
2022/09/07 04:56:17;;;;;;;11.18;7.40;;;16.30;99.90;;;;;;5054388;28;20563;-72
2022/09/07 04:58:44;;;;;;;11.15;7.82;;;16.20;99.90;;;;;;5047116;28;20047;-72
2022/09/07 05:01:18;;;;;;;12.75;8.10;;;16.30;99.90;;;;;;5054302;28;20098;-72
2022/09/07 05:03:44;;;;;;;10.63;7.30;;;16.20;99.90;;;;;;5053799;28;20063;-72
2022/09/07 05:06:10;;;;;;;11.13;6.63;;;16.20;99.90;;;;;;5037357;28;20084;-72
2022/09/07 05:08:42;;;;;;;12.73;7.90;;;16.20;99.90;;;;;;5037501;28;20041;-72
2022/09/07 05:11:09;;;;;;;10.60;6.60;;;16.20;99.90;;;;;;5054247;28;20033;-72
2022/09/07 05:13:35;;;;;;;11.38;7.70;;;16.20;99.90;;;;;;5054359;28;20407;-72
2022/09/07 05:16:10;;;;;;;11.10;7.55;;;16.20;99.90;;;;;;5049322;28;20496;-72
2022/09/07 05:18:37;;;;;;;10.60;7.40;;;16.10;99.90;;;;;;5054250;28;20037;-72
2022/09/07 05:21:11;;;;;;;13.48;8.10;;;16.20;99.90;;;;;;5053977;28;20073;-72
2022/09/07 05:23:37;;;;;;;11.90;7.15;;;16.10;99.90;;;;;;5054149;28;20045;-72
2022/09/07 05:26:04;;;;;;;10.85;7.45;;;16.20;99.90;;;;;;5053616;28;20045;-72
2022/09/07 05:28:30;;;;;;;12.70;8.13;;;16.20;99.90;;;;;;5053816;28;20072;-72
2022/09/07 05:31:07;;;;;;;10.45;6.80;;;16.20;99.90;;;;;;5055099;28;20033;-72
2022/09/07 05:33:33;;;;;;;11.60;7.15;;;16.20;99.90;;;;;;5053198;28;20452;-72
2022/09/07 05:35:59;;;;;;;11.23;7.50;;;16.20;99.90;;;;;;5031475;28;20079;-72
2022/09/07 05:38:25;;;;;;;12.93;7.38;;;16.20;99.90;;;;;;5053582;28;20115;-72
2022/09/07 05:40:51;;;;;;;12.55;7.72;;;16.20;99.90;;;;;;5047277;28;20122;-72
2022/09/07 05:43:17;;;;;;;10.05;7.72;;;16.30;99.90;;;;;;5036861;28;20049;-72
2022/09/07 05:45:42;;;;;;;10.43;8.00;;;16.20;99.90;;;;;;5029439;28;20484;-72
2022/09/07 05:48:08;;;;;;;10.82;7.07;;;16.30;99.90;;;;;;5054789;28;20049;-75
2022/09/07 05:50:34;;;;;;;9.07;7.22;;;16.30;99.90;;;;;;5053041;28;20079;-75
2022/09/07 05:53:01;;;;;;;14.30;7.57;;;16.30;99.90;;;;;;5031962;28;20073;-73
2022/09/07 05:55:27;;;;;;;11.13;7.53;;;16.30;99.90;;;;;;5036853;28;20036;-74
2022/09/07 05:57:53;;;;;;;11.35;7.70;;;16.40;99.90;;;;;;5047567;28;20115;-76
2022/09/07 06:00:20;;;;;;;11.23;7.65;;;16.40;99.90;;;;;;5036668;28;20124;-74
2022/09/07 06:02:46;;;;;;;13.18;7.88;;;16.40;99.90;;;;;;5029896;28;20033;-75
2022/09/07 06:05:12;;;;;;;14.02;7.90;;;16.40;99.90;;;;;;5052823;28;20076;-74
2022/09/07 06:07:39;;;;;;;9.75;7.63;;;16.50;99.90;;;;;;5044980;28;20091;-75
2022/09/07 06:10:06;;;;;;;11.65;8.10;;;16.40;99.90;;;;;;5036435;28;20036;-75
2022/09/07 06:12:33;;;;;;;9.60;7.22;;;16.50;99.90;;;;;;5052980;28;20045;-73
2022/09/07 06:15:00;;;;;;;12.00;8.13;;;16.50;99.90;;;;;;5053010;28;20033;-73
2022/09/07 06:17:29;;;;;;;10.18;7.53;;;16.50;99.90;;;;;;5054108;28;20136;-73
2022/09/07 06:19:56;;;;;;;10.73;7.75;;;16.50;99.90;;;;;;5036276;28;20049;-73
2022/09/07 06:22:21;;;;;;;11.80;7.80;;;16.50;99.90;;;;;;5052496;28;20081;-79
2022/09/07 06:24:47;;;;;;;11.25;7.85;;;16.60;99.90;;;;;;5052637;28;20084;-75
2022/09/07 06:27:13;;;;;;;12.18;7.15;;;16.60;99.90;;;;;;5036215;28;20082;-74
2022/09/07 06:29:38;;;;;;;11.43;7.57;;;16.60;99.90;;;;;;5036287;28;20044;-73
2022/09/07 06:32:04;;;;;;;14.43;7.70;;;16.60;99.90;;;;;;5019539;28;20037;-72
2022/09/07 06:34:30;;;;;;;9.93;7.35;;;16.70;99.90;;;;;;5051980;28;20043;-72
2022/09/07 06:36:56;;;;;;;7.68;6.53;;;16.70;99.90;;;;;;5052444;28;20049;-80
2022/09/07 06:39:21;;;;;;;11.65;7.55;;;16.70;99.90;;;;;;5052613;28;20055;-73
2022/09/07 06:41:47;;;;;;;10.95;7.47;;;16.70;99.90;;;;;;5053285;28;20139;-77
2022/09/07 06:44:13;;;;;;;11.07;7.22;;;16.80;99.90;;;;;;5035781;28;20102;-72
2022/09/07 06:46:38;;;;;;;11.43;7.32;;;16.80;99.90;;;;;;5052201;28;20067;-72
2022/09/07 06:49:04;;;;;;;12.25;8.07;;;16.90;99.90;;;;;;5035856;28;20080;-72
2022/09/07 06:54:56;;;;;;;11.00;7.80;;;17.00;99.90;;;;;;4274316;26;20067;-76
2022/09/07 06:57:21;;;;;;;9.45;7.60;;;17.10;99.90;;;;;;5052306;28;20492;-77
2022/09/07 06:59:47;;;;;;;14.35;7.50;;;17.10;99.90;;;;;;5035584;28;20067;-72
2022/09/07 07:02:13;;;;;;;11.95;7.90;;;17.20;99.90;;;;;;5035908;28;20041;-72
2022/09/07 07:04:39;;;;;;;10.95;8.20;;;17.20;99.90;;;;;;5052390;28;20044;-73
2022/09/07 07:07:05;;;;;;;12.02;7.97;;;17.20;99.90;;;;;;5019245;28;20041;-73
2022/09/07 07:09:31;;;;;;;9.15;7.18;;;17.20;99.90;;;;;;5019112;28;20049;-76
2022/09/07 07:11:56;;;;;;;9.85;7.95;;;17.30;99.90;;;;;;5052178;28;20492;-77
2022/09/07 07:14:22;;;;;;;14.35;8.30;;;17.20;99.90;;;;;;5035565;28;20044;-77
2022/09/07 07:16:48;;;;;;;9.27;7.30;;;17.20;99.90;;;;;;5035351;28;20063;-77
2022/09/07 07:19:14;;;;;;;11.35;8.25;;;17.20;99.90;;;;;;5035365;28;20123;-76
2022/09/07 07:21:39;;;;;;;12.10;8.07;;;17.20;99.90;;;;;;5052059;28;20190;-76
2022/09/07 07:27:08;;;;;;;11.57;7.72;;;17.30;99.90;;;;;;5030367;28;20099;-66
2022/09/07 07:29:34;;;;;;;11.70;7.85;;;17.40;99.90;;;;;;5033248;28;20037;-66
2022/09/07 07:32:00;;;;;;;13.30;8.27;;;17.60;99.90;;;;;;5032118;28;20116;-67
2022/09/07 07:34:30;;;;;;;15.45;8.13;;;17.60;99.90;;;;;;5015243;28;20073;-66
2022/09/07 07:36:59;;;;;;;10.43;7.85;;;17.60;99.90;;;;;;5027752;28;20046;-66
2022/09/07 07:39:25;;;;;;;10.68;7.72;;;17.50;99.90;;;;;;5033192;28;20399;-66
2022/09/07 07:41:51;;;;;;;11.23;8.32;;;17.60;99.90;;;;;;5032850;28;20045;-66
2022/09/07 07:44:17;;;;;;;12.55;8.52;;;17.70;99.90;;;;;;5032897;28;20037;-66
2022/09/07 07:46:46;;;;;;;11.75;8.48;;;17.70;99.90;;;;;;5033115;28;20098;-66
2022/09/07 07:49:12;;;;;;;11.02;8.35;;;17.80;99.90;;;;;;5033126;28;20131;-66
2022/09/07 07:51:38;;;;;;;12.48;8.40;;;17.80;99.90;;;;;;5033174;28;20085;-66
2022/09/07 07:54:04;;;;;;;13.80;8.15;;;17.90;99.90;;;;;;5033021;28;20148;-66
2022/09/07 07:56:30;;;;;;;10.43;8.00;;;17.90;99.90;;;;;;5015274;28;20045;-66
2022/09/07 07:58:56;;;;;;;9.50;6.78;;;17.90;99.90;;;;;;5033051;28;20037;-66
2022/09/07 08:01:22;;;;;;;11.25;8.15;;;17.90;99.90;;;;;;5015460;28;20075;-66
2022/09/07 08:03:48;;;;;;;10.55;7.50;;;17.90;99.90;;;;;;5033164;28;20423;-66
2022/09/07 08:06:19;;;;;;;8.98;7.10;;;17.90;99.90;;;;;;5032522;28;20128;-66
2022/09/07 08:08:45;;;;;;;11.18;7.18;;;17.90;99.90;;;;;;5032917;28;20091;-66
2022/09/07 08:11:15;;;;;;;14.55;8.07;;;17.90;99.90;;;;;;5031383;28;20033;-66
2022/09/07 08:13:42;;;;;;;10.13;6.82;;;17.90;99.90;;;;;;5032598;28;20124;-66
2022/09/07 08:16:09;;;;;;;12.13;8.05;;;17.90;99.90;;;;;;5031222;28;20092;-66
2022/09/07 08:18:36;;;;;;;9.98;7.55;;;17.90;99.90;;;;;;5032892;28;20038;-66
2022/09/07 08:21:08;;;;;;;11.88;8.20;;;17.90;99.90;;;;;;5032862;28;20045;-66
2022/09/07 08:23:34;;;;;;;12.52;7.80;;;18.00;99.90;;;;;;5032810;28;20480;-66
2022/09/07 08:26:00;;;;;;;13.30;7.43;;;18.00;99.90;;;;;;5023654;28;20056;-66
2022/09/07 08:28:28;;;;;;;9.25;7.22;;;18.00;99.90;;;;;;5012976;28;20049;-66
2022/09/07 08:30:55;;;;;;;13.02;8.38;;;18.10;99.90;;;;;;5012916;28;20503;-66
2022/09/07 08:33:21;;;;;;;11.27;7.90;;;18.10;99.90;;;;;;5013063;28;20037;-66
2022/09/07 08:36:01;;;;;;;16.98;8.73;;;18.20;99.90;;;;;;5012693;28;20038;-66
2022/09/07 08:38:29;;;;;;;13.25;8.80;;;18.30;99.90;;;;;;5012992;28;20050;-66
2022/09/07 08:40:55;;;;;;;11.52;8.27;;;18.30;99.90;;;;;;5012924;28;20501;-67
2022/09/07 08:43:48;;;;;;;12.13;7.97;;;18.30;99.90;;;;;;4979121;28;20069;-66
2022/09/07 08:46:34;;;;;;;10.73;7.50;;;18.40;99.90;;;;;;4998913;28;20042;-66
2022/09/07 08:49:03;;;;;;;11.88;7.50;;;18.40;99.90;;;;;;5016493;28;20037;-66
2022/09/07 08:52:04;;;;;;;11.80;7.88;;;18.30;99.90;;;;;;5016294;28;20529;-66
2022/09/07 08:54:31;;;;;;;13.10;8.45;;;18.40;99.90;;;;;;5010920;28;20085;-66
2022/09/07 08:57:01;;;;;;;10.65;7.88;;;18.50;99.90;;;;;;5016071;28;20045;-66
2022/09/07 08:59:53;;;;;;;13.37;8.27;;;18.50;99.90;;;;;;5016150;28;20038;-66
2022/09/07 09:02:19;;;;;;;11.82;8.07;;;18.60;99.90;;;;;;5004790;28;20081;-66
2022/09/07 09:04:44;;;;;;;12.80;8.27;;;18.70;99.90;;;;;;4998507;28;20049;-66
2022/09/07 09:07:18;;;;;;;11.32;8.75;;;18.80;99.90;;;;;;5016036;28;20042;-66
2022/09/07 09:10:22;;;;;;;11.75;8.35;;;18.90;99.90;;;;;;4998602;28;20037;-66
2022/09/07 09:12:57;;;;;;;12.85;7.40;;;19.00;99.90;;;;;;4961934;28;20045;-66
2022/09/07 09:16:03;;;;;;;10.77;7.22;;;19.20;99.90;;;;;;5015723;28;20041;-66
2022/09/07 09:18:28;;;;;;;12.32;8.15;;;19.30;99.90;;;;;;5015873;28;20108;-66
2022/09/07 09:20:56;;;;;;;13.43;7.22;;;19.40;99.90;;;;;;5015977;28;20168;-66
2022/09/07 09:23:38;;;;;;;11.73;7.85;;;19.30;99.90;;;;;;5015771;28;20046;-66
2022/09/07 09:26:16;;;;;;;11.70;8.27;;;19.30;99.90;;;;;;5024510;28;20061;-66
2022/09/07 09:28:41;;;;;;;13.35;8.32;;;19.40;99.90;;;;;;5035126;28;20056;-66
2022/09/07 09:31:19;;;;;;;16.55;7.72;;;19.40;99.90;;;;;;5017702;28;20041;-67
2022/09/07 09:34:04;;;;;;;10.90;7.53;;;19.40;99.90;;;;;;5035210;28;20044;-66
2022/09/07 09:36:39;;;;;;;10.35;7.57;;;19.60;99.90;;;;;;5034991;28;20099;-67
2022/09/07 09:39:31;;;;;;;13.90;7.35;;;19.70;99.90;;;;;;5029853;28;20396;-66
2022/09/07 09:42:20;;;;;;;10.10;6.63;;;19.80;99.90;;;;;;5029897;28;20388;-66
2022/09/07 09:44:46;;;;;;;10.40;7.28;;;20.00;99.90;;;;;;5035292;28;20068;-66
2022/09/07 09:47:34;;;;;;;9.95;6.72;;;20.00;99.70;;;;;;5035036;28;20045;-65
2022/09/07 09:50:22;;;;;;;8.77;6.32;;;20.00;99.90;;;;;;5034857;28;20033;-65
2022/09/07 09:52:50;;;;;;;10.68;6.75;;;20.10;99.90;;;;;;5019112;28;20149;-65
2022/09/07 09:55:25;;;;;;;9.60;6.43;;;20.10;99.90;;;;;;5033806;28;20076;-66
2022/09/07 09:57:57;;;;;;;9.23;7.07;;;20.20;99.90;;;;;;5034997;28;20468;-66
2022/09/07 10:00:26;;;;;;;9.57;6.38;;;20.20;99.50;;;;;;5034633;28;20045;-66
2022/09/07 10:03:22;;;;;;;8.88;6.10;;;20.30;99.90;;;;;;5034577;28;20041;-66
2022/09/07 10:05:49;;;;;;;8.73;6.22;;;20.40;99.40;;;;;;5032623;28;20075;-66
2022/09/07 10:08:27;;;;;;;11.90;6.32;;;20.30;99.40;;;;;;5033082;28;20052;-66
2022/09/07 10:10:56;;;;;;;12.43;6.50;;;20.40;99.40;;;;;;5034713;28;20480;-66
2022/09/07 10:13:27;;;;;;;9.85;5.63;;;20.50;99.30;;;;;;5034285;28;20077;-64
2022/09/07 10:15:53;;;;;;;;;;;20.60;99.10;;;;;;5034735;28;20048;-64
2022/09/07 10:18:35;;;;;;;9.65;5.18;;;20.50;98.60;;;;;;5034562;28;19921;-64
2022/09/07 10:21:24;;;;;;;7.22;4.82;;;20.50;98.40;;;;;;5034521;28;20053;-66
2022/09/07 10:24:14;;;;;;;8.23;5.18;;;20.60;98.60;;;;;;5034476;28;20037;-65
2022/09/07 10:26:43;;;;;;;6.57;4.10;;;20.60;98.50;;;;;;5032702;28;20476;-64
2022/09/07 10:29:25;;;;;;;7.13;4.72;;;20.70;98.60;;;;;;5034252;28;20095;-63
2022/09/07 10:32:18;;;;;;;5.47;3.90;;;20.70;98.00;;;;;;5034248;28;20485;-64
2022/09/07 10:35:22;;;;;;;7.38;4.60;;;20.60;97.40;;;;;;5032424;28;20074;-63
2022/09/07 10:38:15;;;;;;;6.93;3.53;;;20.80;96.80;;;;;;5034234;28;20038;-64
2022/09/07 10:40:44;;;;;;;4.65;3.53;;;20.90;96.50;;;;;;5033771;28;20071;-63
2022/09/07 10:43:24;;;;;;;4.63;3.10;;;20.90;94.80;;;;;;5034152;28;20591;-64
2022/09/07 10:46:12;;;;;;;6.43;2.97;;;21.00;95.40;;;;;;5033643;28;20045;-64
2022/09/07 10:49:18;;;;;;;5.20;3.53;;;21.10;95.80;;;;;;5033596;28;20172;-64
2022/09/07 10:52:13;;;;;;;4.55;3.20;;;21.20;94.70;;;;;;5033604;28;20045;-64
2022/09/07 10:54:51;;;;;;;4.32;2.60;;;21.40;94.10;;;;;;5033911;28;20041;-65
2022/09/07 10:57:28;;;;;;;4.90;3.20;;;21.50;93.10;;;;;;5033829;28;20045;-65
2022/09/07 11:00:11;;;;;;;6.43;2.85;;;21.70;93.40;;;;;;5033778;28;20437;-65
2022/09/07 11:02:41;;;;;;;5.03;2.75;;;21.80;93.00;;;;;;5033486;28;20040;-66
2022/09/07 11:05:35;;;;;;;5.75;3.70;;;21.60;91.80;;;;;;5033491;28;20060;-65
2022/09/07 11:08:25;;;;;;;5.10;3.45;;;21.50;92.30;;;;;;5033114;28;20053;-64
2022/09/07 11:11:06;;;;;;;5.43;2.92;;;21.50;93.30;;;;;;5033576;28;20045;-64
2022/09/07 11:13:39;;;;;;;4.00;2.97;;;21.50;93.90;;;;;;5031460;28;20053;-64
2022/09/07 11:16:15;;;;;;;3.17;2.30;;;21.60;93.50;;;;;;5033205;28;20045;-66
2022/09/07 11:19:20;;;;;;;3.97;2.70;;;21.60;90.60;;;;;;5033568;28;20037;-64
2022/09/07 11:22:15;;;;;;;6.55;2.60;;;21.80;91.30;;;;;;5031089;28;20053;-65
2022/09/07 11:24:50;;;;;;;4.07;2.63;;;22.00;91.20;;;;;;5002386;28;20061;-64
2022/09/07 11:27:47;;;;;;;7.60;2.65;;;22.00;91.50;;;;;;5031628;28;20084;-65
2022/09/07 11:30:35;;;;;;;2.88;2.13;;;21.90;89.70;;;;;;5033062;28;20081;-67
2022/09/07 11:33:18;;;;;;;3.55;2.10;;;22.10;91.00;;;;;;5033363;28;20116;-67
2022/09/07 11:35:49;;;;;;;6.18;2.15;;;22.10;87.50;;;;;;5033246;28;20120;-65
2022/09/07 11:38:22;;;;;;;5.00;2.60;;;22.00;85.70;;;;;;5032905;28;20037;-67
2022/09/07 11:41:21;;;;;;;3.03;2.05;;;22.10;82.90;;;;;;5033159;28;20049;-63
2022/09/07 11:44:04;;;;;;;3.50;2.22;;;22.30;84.10;;;;;;5016896;28;20061;-66
2022/09/07 11:46:53;;;;;;;2.63;1.88;;;22.40;78.70;;;;;;5031329;28;20099;-67
2022/09/07 11:49:26;;;;;;;2.70;2.13;;;22.30;80.60;;;;;;5033031;28;20116;-67
2022/09/07 11:52:02;;;;;;;4.60;2.35;;;22.20;82.00;;;;;;5032594;28;20033;-67
2022/09/07 11:54:52;;;;;;;6.43;2.30;;;22.00;82.40;;;;;;5032654;28;20038;-68
2022/09/07 11:57:49;;;;;;;2.28;1.55;;;22.00;84.90;;;;;;5032972;28;20045;-68
2022/09/07 12:00:36;;;;;;;3.10;1.75;;;22.00;81.80;;;;;;4994222;28;20049;-67
2022/09/07 12:03:02;;;;;;;3.53;1.95;;;22.20;77.70;;;;;;5031482;28;20546;-67
2022/09/07 12:05:43;;;;;;;3.03;1.80;;;22.30;75.60;;;;;;5031271;28;20041;-68
2022/09/07 12:08:27;;;;;;;3.28;1.77;;;22.40;76.40;;;;;;5031266;28;20072;-68
2022/09/07 12:11:23;;;;;;;2.58;1.80;;;22.50;74.60;;;;;;5032656;28;20396;-68
2022/09/07 12:14:13;;;;;;;3.13;1.85;;;22.30;76.70;;;;;;5031314;28;20045;-69
2022/09/07 12:16:39;;;;;;;;;;;22.20;77.40;;;;;;5031493;28;20047;-64
2022/09/07 12:19:25;;;;;;;2.70;2.00;;;22.20;74.60;;;;;;5033877;28;20004;-65
2022/09/07 12:21:55;;;;;;;3.30;2.00;;;22.20;74.10;;;;;;5018716;28;20045;-64
2022/09/07 12:24:40;;;;;;;3.60;2.08;;;22.10;76.20;;;;;;5035290;28;20084;-65
2022/09/07 12:27:21;;;;;;;4.95;1.65;;;22.00;77.20;;;;;;5036042;28;20049;-65
2022/09/07 12:29:56;;;;;;;2.10;1.70;;;22.10;72.60;;;;;;5036270;28;20046;-65
2022/09/07 12:32:47;;;;;;;2.05;1.70;;;22.20;76.00;;;;;;5036242;28;20051;-65
2022/09/07 12:35:31;;;;;;;;;;;22.50;79.30;;;;;;5036896;28;20037;-65
2022/09/07 12:38:00;;;;;;;4.03;1.58;;;22.70;68.20;;;;;;5036390;28;19924;-65
2022/09/07 12:40:35;;;;;;;2.30;1.60;;;22.90;73.30;;;;;;5036123;28;20048;-65
2022/09/07 12:43:13;;;;;;;3.50;1.77;;;23.10;73.50;;;;;;5036363;28;20040;-65
2022/09/07 12:45:38;;;;;;;3.78;1.65;;;23.20;66.50;;;;;;5035874;28;20041;-65
2022/09/07 12:48:04;;;;;;;2.95;1.60;;;23.30;68.00;;;;;;5036158;28;20107;-65
2022/09/07 12:50:54;;;;;;;2.20;1.38;;;23.30;65.60;;;;;;5034143;28;20504;-67
2022/09/07 12:53:37;;;;;;;4.85;2.25;;;23.30;55.40;;;;;;5034819;28;20384;-67
2022/09/07 12:56:35;;;;;;;2.90;1.35;;;23.20;58.60;;;;;;5035789;28;20049;-66
2022/09/07 12:59:32;;;;;;;1.80;1.40;;;23.00;56.00;;;;;;5035946;28;20102;-66
2022/09/07 13:02:32;;;;;;;1.77;1.20;;;22.90;61.70;;;;;;5036047;28;20110;-66
2022/09/07 13:05:16;;;;;;;3.10;1.47;;;23.00;59.10;;;;;;5036287;28;20068;-66
2022/09/07 13:08:03;;;;;;;4.30;1.30;;;23.00;58.40;;;;;;5034234;28;20132;-66
2022/09/07 13:10:34;;;;;;;3.13;1.42;;;23.00;50.10;;;;;;5034284;28;20044;-65
2022/09/07 13:13:22;;;;;;;2.60;1.58;;;23.10;54.40;;;;;;5034206;28;20049;-66
2022/09/07 13:16:14;;;;;;;2.13;1.30;;;23.20;42.30;;;;;;5035787;28;20514;-66
2022/09/07 13:18:42;;;;;;;2.50;1.30;;;23.30;52.00;;;;;;5034000;28;20045;-66
2022/09/07 13:21:08;;;;;;;2.95;1.20;;;23.40;43.00;;;;;;5034351;28;20085;-65
2022/09/07 13:23:38;;;;;;;2.13;1.40;;;23.30;52.70;;;;;;5035284;28;20084;-64
2022/09/07 13:26:07;;;;;;;;;;;23.30;1.00;;;;;;5026319;28;20052;-63
2022/09/07 13:28:54;;;;;;;1.67;0.82;;;23.40;1.00;;;;;;5015714;28;20346;-64